Time;durP1;ratioP1;P1;durP2;ratioP2;P2;SDS_P1;SDS_P2;PMS_P1;PMS_P2;Temp;Humidity;BMP_temperature;BMP_pressure;BME280_temperature;BME280_humidity;BME280_pressure;Samples;Min_cycle;Max_cycle;Signal;HPM_P1;HPM_P2
2022/04/05 00:00:00;;;;;;;16.67;3.22;;;;;;;;;;5076367;28;20043;-87
2022/04/05 00:02:26;;;;;;;14.48;3.17;;;;;;;;;;5076516;28;20028;-88
2022/04/05 00:04:58;;;;;;;24.13;3.42;;;;;;;;;;5077131;28;20135;-88
2022/04/05 00:07:25;;;;;;;12.27;2.47;;;;;;;;;;5087079;28;20040;-89
2022/04/05 00:23:36;;;;;;;19.92;3.55;;;;;;;;;;5085773;28;20051;-87
2022/04/05 00:26:02;;;;;;;14.90;2.92;;;;;;;;;;5062112;28;20510;-87
2022/04/05 00:28:54;;;;;;;17.08;3.28;;;;;;;;;;5074194;28;20052;-86
2022/04/05 00:31:20;;;;;;;13.48;3.10;;;;;;;;;;5074198;28;20423;-88
2022/04/05 00:33:52;;;;;;;19.02;4.03;;;;;;;;;;5060752;28;20484;-87
2022/04/05 00:36:18;;;;;;;22.05;3.67;;;;;;;;;;5076386;28;20039;-88
2022/04/05 00:38:50;;;;;;;14.43;3.47;;;;;;;;;;5088794;28;20028;-86
2022/04/05 00:41:17;;;;;;;11.93;2.70;;;;;;;;;;5071971;28;20063;-87
2022/04/05 00:43:43;;;;;;;9.82;3.08;;;;;;;;;;5062816;28;20064;-86
2022/04/05 00:46:11;;;;;;;13.45;2.35;;;;;;;;;;5071253;28;20028;-85
2022/04/05 00:48:38;;;;;;;15.88;4.10;;;;;;;;;;5064860;28;20530;-86
2022/04/05 00:51:05;;;;;;;25.55;3.58;;;;;;;;;;5071207;28;20380;-86
2022/04/05 00:53:32;;;;;;;25.45;3.90;;;;;;;;;;5077487;28;20032;-87
2022/04/05 00:55:58;;;;;;;17.45;3.60;;;;;;;;;;5085165;28;20114;-86
2022/04/05 00:58:28;;;;;;;19.15;3.15;;;;;;;;;;5067888;28;20497;-86
2022/04/05 01:00:55;;;;;;;19.65;2.47;;;;;;;;;;5068005;28;20059;-86
2022/04/05 01:03:22;;;;;;;18.85;3.25;;;;;;;;;;5065300;28;20066;-86
2022/04/05 01:05:49;;;;;;;16.98;2.50;;;;;;;;;;5073908;28;20043;-86
2022/04/05 01:08:18;;;;;;;11.43;2.47;;;;;;;;;;5062386;28;20039;-87
2022/04/05 01:10:45;;;;;;;24.40;3.53;;;;;;;;;;5064385;28;20051;-86
2022/04/05 01:13:11;;;;;;;8.48;2.30;;;;;;;;;;5076736;28;20064;-86
2022/04/05 01:15:38;;;;;;;20.75;3.83;;;;;;;;;;5058750;28;20098;-85
2022/04/05 01:18:04;;;;;;;15.60;2.78;;;;;;;;;;5056895;28;20063;-86
2022/04/05 01:20:32;;;;;;;16.27;3.00;;;;;;;;;;5057832;28;20123;-86
2022/04/05 01:22:58;;;;;;;15.07;3.30;;;;;;;;;;5065939;28;20047;-86
2022/04/05 01:25:25;;;;;;;20.30;3.35;;;;;;;;;;5069065;28;20060;-87
2022/04/05 01:27:52;;;;;;;13.07;2.80;;;;;;;;;;5056330;28;20040;-86
2022/04/05 01:30:19;;;;;;;13.52;2.72;;;;;;;;;;5059211;28;20493;-86
2022/04/05 01:32:46;;;;;;;22.52;3.75;;;;;;;;;;5063681;28;20032;-86
2022/04/05 01:35:14;;;;;;;13.88;3.08;;;;;;;;;;5069055;28;20119;-87
2022/04/05 01:37:43;;;;;;;23.77;3.40;;;;;;;;;;5089048;28;20179;-88
2022/04/05 01:40:10;;;;;;;20.00;3.65;;;;;;;;;;5069897;28;20029;-87
2022/04/05 01:42:41;;;;;;;19.80;3.85;;;;;;;;;;5070044;28;20036;-88
2022/04/05 01:45:07;;;;;;;13.70;3.05;;;;;;;;;;5074677;28;20081;-86
2022/04/05 01:47:34;;;;;;;17.98;3.35;;;;;;;;;;5064289;28;20444;-89
2022/04/05 01:50:00;;;;;;;17.13;4.20;;;;;;;;;;5064669;28;20127;-89
2022/04/05 01:52:26;;;;;;;17.90;3.40;;;;;;;;;;5064301;28;20051;-87
2022/04/05 01:54:56;;;;;;;13.60;3.40;;;;;;;;;;5068283;28;20609;-88
2022/04/05 01:57:22;;;;;;;16.83;2.90;;;;;;;;;;5070777;28;20142;-86
2022/04/05 01:59:49;;;;;;;22.17;2.83;;;;;;;;;;5071087;28;20031;-88
2022/04/05 02:02:15;;;;;;;18.90;3.08;;;;;;;;;;5067018;28;20048;-87
2022/04/05 02:04:42;;;;;;;17.15;3.08;;;;;;;;;;5065526;28;20510;-88
2022/04/05 02:07:10;;;;;;;14.55;2.58;;;;;;;;;;5071174;28;20040;-88
2022/04/05 02:09:37;;;;;;;14.65;2.45;;;;;;;;;;5073144;28;20037;-88
2022/04/05 02:12:06;;;;;;;14.18;2.95;;;;;;;;;;5068689;28;20036;-88
2022/04/05 02:14:33;;;;;;;16.10;2.92;;;;;;;;;;5067776;28;20047;-87
2022/04/05 02:16:59;;;;;;;15.75;2.97;;;;;;;;;;5090446;28;20382;-87
2022/04/05 02:19:32;;;;;;;14.93;2.13;;;;;;;;;;5073344;28;20036;-87
2022/04/05 02:21:59;;;;;;;17.90;2.85;;;;;;;;;;5073404;28;20140;-87
2022/04/05 02:24:25;;;;;;;17.17;2.70;;;;;;;;;;5065988;28;20044;-88
2022/04/05 02:26:51;;;;;;;9.85;2.50;;;;;;;;;;5071402;28;20040;-89
2022/04/05 02:29:18;;;;;;;11.07;2.55;;;;;;;;;;5075851;28;20131;-88
2022/04/05 02:31:44;;;;;;;14.23;2.70;;;;;;;;;;5072217;28;20502;-88
2022/04/05 02:34:10;;;;;;;14.25;2.60;;;;;;;;;;5073218;28;20028;-88
2022/04/05 02:36:37;;;;;;;16.80;2.28;;;;;;;;;;5067465;28;20033;-89
2022/04/05 02:39:04;;;;;;;15.02;2.97;;;;;;;;;;5071046;28;20046;-88
2022/04/05 02:41:30;;;;;;;19.63;3.45;;;;;;;;;;5091367;28;20024;-88
2022/04/05 02:43:58;;;;;;;15.60;3.08;;;;;;;;;;5092470;28;20066;-88
2022/04/05 02:46:25;;;;;;;20.38;3.05;;;;;;;;;;5074172;28;20081;-85
2022/04/05 02:48:54;;;;;;;21.60;3.25;;;;;;;;;;5063918;28;20035;-87
2022/04/05 02:51:21;;;;;;;15.70;2.92;;;;;;;;;;5073539;28;20032;-86
2022/04/05 02:53:48;;;;;;;17.67;3.22;;;;;;;;;;5066406;28;20032;-85
2022/04/05 02:56:15;;;;;;;14.52;2.85;;;;;;;;;;5070035;28;20032;-85
2022/04/05 02:58:41;;;;;;;26.15;3.20;;;;;;;;;;5068964;28;20029;-85
2022/04/05 03:01:08;;;;;;;16.00;2.65;;;;;;;;;;5067726;28;20375;-86
2022/04/05 03:03:34;;;;;;;21.38;3.33;;;;;;;;;;5062154;28;20024;-85
2022/04/05 03:06:01;;;;;;;26.15;4.30;;;;;;;;;;5067617;28;20169;-85
2022/04/05 03:08:28;;;;;;;21.60;3.53;;;;;;;;;;5071474;28;20036;-85
2022/04/05 03:10:58;;;;;;;26.38;4.03;;;;;;;;;;5072471;28;20494;-85
2022/04/05 03:13:24;;;;;;;23.40;3.75;;;;;;;;;;5070171;28;20054;-83
2022/04/05 03:15:50;;;;;;;25.83;3.72;;;;;;;;;;5076540;28;20032;-85
2022/04/05 03:18:17;;;;;;;28.73;4.88;;;;;;;;;;5060650;28;20044;-84
2022/04/05 03:20:45;;;;;;;34.78;5.10;;;;;;;;;;5073146;28;20499;-85
2022/04/05 03:23:12;;;;;;;31.63;4.93;;;;;;;;;;5074837;28;20509;-85
2022/04/05 03:25:38;;;;;;;28.98;4.82;;;;;;;;;;5064601;28;20384;-84
2022/04/05 03:28:05;;;;;;;24.70;3.97;;;;;;;;;;5056314;28;20483;-84
2022/04/05 03:30:32;;;;;;;24.98;4.18;;;;;;;;;;5062822;28;20369;-84
2022/04/05 03:32:59;;;;;;;26.88;4.35;;;;;;;;;;5059901;28;20061;-85
2022/04/05 03:35:26;;;;;;;26.02;4.50;;;;;;;;;;5062823;28;20391;-85
2022/04/05 03:37:55;;;;;;;17.67;4.25;;;;;;;;;;5074192;28;20044;-85
2022/04/05 03:40:21;;;;;;;14.75;3.28;;;;;;;;;;5056712;28;20031;-85
2022/04/05 03:42:52;;;;;;;26.38;4.20;;;;;;;;;;5058648;28;20029;-84
2022/04/05 03:45:18;;;;;;;22.40;4.88;;;;;;;;;;5058943;28;20391;-84
2022/04/05 03:48:01;;;;;;;29.85;4.60;;;;;;;;;;5045652;28;20392;-85
2022/04/05 03:50:27;;;;;;;23.77;4.32;;;;;;;;;;5051146;28;20480;-85
2022/04/05 03:52:57;;;;;;;23.65;3.97;;;;;;;;;;5065444;28;20099;-85
2022/04/05 03:55:23;;;;;;;26.83;5.22;;;;;;;;;;5062524;28;20063;-84
2022/04/05 03:57:50;;;;;;;29.30;5.20;;;;;;;;;;5054391;28;20053;-84
2022/04/05 04:00:16;;;;;;;25.58;4.30;;;;;;;;;;5070503;28;20510;-85
2022/04/05 04:02:43;;;;;;;30.20;4.72;;;;;;;;;;5057311;28;20059;-85
2022/04/05 04:05:09;;;;;;;24.30;4.25;;;;;;;;;;5068284;28;20433;-85
2022/04/05 04:07:39;;;;;;;24.10;4.15;;;;;;;;;;5059364;28;20502;-86
2022/04/05 04:10:13;;;;;;;24.88;5.18;;;;;;;;;;5073739;28;20479;-87
2022/04/05 04:12:40;;;;;;;22.42;6.05;;;;;;;;;;5059470;28;20032;-86
2022/04/05 04:15:08;;;;;;;25.73;5.85;;;;;;;;;;5064582;28;20029;-86
2022/04/05 04:17:34;;;;;;;26.63;4.95;;;;;;;;;;5054431;28;20033;-85
2022/04/05 04:20:00;;;;;;;25.58;6.18;;;;;;;;;;5046999;28;20451;-85
2022/04/05 04:22:27;;;;;;;22.17;6.15;;;;;;;;;;5040687;28;20032;-85
2022/04/05 04:24:56;;;;;;;31.73;5.75;;;;;;;;;;5065839;28;20170;-85
2022/04/05 04:27:23;;;;;;;26.55;7.95;;;;;;;;;;5064969;28;20036;-85
2022/04/05 04:29:53;;;;;;;34.85;8.98;;;;;;;;;;5067283;28;20046;-85
2022/04/05 04:32:20;;;;;;;39.33;13.68;;;;;;;;;;5068396;28;20068;-85
2022/04/05 04:34:47;;;;;;;34.70;10.77;;;;;;;;;;5066631;28;20182;-85
2022/04/05 04:37:14;;;;;;;41.63;11.32;;;;;;;;;;5071153;28;20468;-85
2022/04/05 04:39:40;;;;;;;40.63;13.95;;;;;;;;;;5070185;28;20501;-85
2022/04/05 04:42:07;;;;;;;30.55;11.93;;;;;;;;;;5060761;28;20029;-85
2022/04/05 04:44:33;;;;;;;40.25;11.32;;;;;;;;;;5068419;28;20094;-85
2022/04/05 04:46:59;;;;;;;35.88;9.68;;;;;;;;;;5067536;28;20028;-86
2022/04/05 04:49:26;;;;;;;23.48;7.10;;;;;;;;;;5087737;28;20036;-85
2022/04/05 04:51:52;;;;;;;25.88;6.47;;;;;;;;;;5063039;28;20486;-85
2022/04/05 04:54:19;;;;;;;31.42;7.03;;;;;;;;;;5066921;28;20502;-85
2022/04/05 04:56:46;;;;;;;31.35;8.82;;;;;;;;;;5061478;28;20036;-85
2022/04/05 04:59:12;;;;;;;28.95;6.32;;;;;;;;;;5069667;28;20063;-85
2022/04/05 05:01:38;;;;;;;21.60;5.38;;;;;;;;;;5066472;28;20040;-85
2022/04/05 05:04:09;;;;;;;28.88;6.10;;;;;;;;;;5073766;28;20052;-85
2022/04/05 05:06:35;;;;;;;28.67;7.43;;;;;;;;;;5055900;28;20032;-85
2022/04/05 05:09:01;;;;;;;21.85;4.93;;;;;;;;;;5062092;28;20286;-85
2022/04/05 05:11:28;;;;;;;31.27;5.47;;;;;;;;;;5063830;28;20515;-86
2022/04/05 05:13:55;;;;;;;24.33;5.00;;;;;;;;;;5066428;28;20051;-85
2022/04/05 05:16:21;;;;;;;26.05;5.32;;;;;;;;;;5085500;28;20108;-85
2022/04/05 05:18:49;;;;;;;26.85;5.03;;;;;;;;;;5073984;28;20039;-85
2022/04/05 05:21:16;;;;;;;24.85;6.43;;;;;;;;;;5088339;28;20056;-85
2022/04/05 05:23:42;;;;;;;36.42;6.65;;;;;;;;;;5077801;28;20422;-85
2022/04/05 05:26:09;;;;;;;25.83;5.82;;;;;;;;;;5076643;28;20071;-85
2022/04/05 05:28:35;;;;;;;30.67;5.78;;;;;;;;;;5082769;28;20388;-85
2022/04/05 05:31:02;;;;;;;24.77;5.57;;;;;;;;;;5073574;28;20115;-86
2022/04/05 05:33:28;;;;;;;30.17;6.53;;;;;;;;;;5068958;28;20036;-85
2022/04/05 05:35:54;;;;;;;29.33;6.70;;;;;;;;;;5078770;28;20035;-85
2022/04/05 05:38:21;;;;;;;31.52;7.18;;;;;;;;;;5080406;28;20037;-85
2022/04/05 05:40:47;;;;;;;24.48;4.57;;;;;;;;;;5078958;28;20556;-85
2022/04/05 05:43:13;;;;;;;28.55;5.60;;;;;;;;;;5075320;28;20063;-85
2022/04/05 05:45:40;;;;;;;31.67;5.28;;;;;;;;;;5098077;28;20491;-86
2022/04/05 05:48:07;;;;;;;21.73;5.13;;;;;;;;;;5096834;28;20417;-86
2022/04/05 05:50:34;;;;;;;22.88;4.45;;;;;;;;;;5073500;28;20533;-85
2022/04/05 05:53:00;;;;;;;26.90;4.93;;;;;;;;;;5074979;28;20028;-85
2022/04/05 05:55:33;;;;;;;21.30;4.76;;;;;;;;;;3858869;28;10002940;-86
2022/04/05 05:57:59;;;;;;;20.98;3.65;;;;;;;;;;5096708;28;20035;-84
2022/04/05 06:00:25;;;;;;;18.80;3.72;;;;;;;;;;5070474;28;20032;-85
2022/04/05 06:02:58;;;;;;;26.42;4.57;;;;;;;;;;5071938;28;20383;-87
2022/04/05 06:05:27;;;;;;;36.55;5.30;;;;;;;;;;5081051;28;20036;-85
2022/04/05 06:07:53;;;;;;;23.00;4.95;;;;;;;;;;5068560;28;20039;-85
2022/04/05 06:10:22;;;;;;;25.30;4.57;;;;;;;;;;5096900;28;20040;-86
2022/04/05 06:12:49;;;;;;;27.58;4.60;;;;;;;;;;5070666;28;20044;-85
2022/04/05 06:15:17;;;;;;;19.02;4.85;;;;;;;;;;5061276;28;20044;-85
2022/04/05 06:17:48;;;;;;;17.88;4.45;;;;;;;;;;5079432;28;20028;-85
2022/04/05 06:20:16;;;;;;;21.52;5.13;;;;;;;;;;5067370;28;20436;-86
2022/04/05 06:22:42;;;;;;;30.50;5.22;;;;;;;;;;5092248;28;20035;-85
2022/04/05 06:25:09;;;;;;;25.83;4.57;;;;;;;;;;5076424;28;20044;-85
2022/04/05 06:27:37;;;;;;;21.95;5.13;;;;;;;;;;5097823;28;20075;-85
2022/04/05 06:30:04;;;;;;;25.75;5.05;;;;;;;;;;5072521;28;20110;-85
2022/04/05 06:32:30;;;;;;;19.40;3.78;;;;;;;;;;5078199;28;20046;-85
2022/04/05 06:34:56;;;;;;;23.10;4.13;;;;;;;;;;5079544;28;20127;-86
2022/04/05 06:37:23;;;;;;;22.92;3.67;;;;;;;;;;5094650;28;20028;-85
2022/04/05 06:39:49;;;;;;;26.52;4.25;;;;;;;;;;5064941;28;20032;-85
2022/04/05 06:42:15;;;;;;;22.27;3.97;;;;;;;;;;5076190;28;20093;-85
2022/04/05 06:44:42;;;;;;;23.42;3.90;;;;;;;;;;5075100;28;20127;-85
2022/04/05 06:47:11;;;;;;;25.67;4.38;;;;;;;;;;5056507;28;20036;-86
2022/04/05 06:49:38;;;;;;;22.08;5.13;;;;;;;;;;5070272;28;20071;-85
2022/04/05 06:52:05;;;;;;;25.00;4.97;;;;;;;;;;5072144;28;20059;-86
2022/04/05 06:54:31;;;;;;;21.20;4.72;;;;;;;;;;5056072;28;20028;-85
2022/04/05 06:56:57;;;;;;;18.65;3.83;;;;;;;;;;5074438;28;20024;-85
2022/04/05 06:59:24;;;;;;;27.52;5.85;;;;;;;;;;5071289;28;20085;-85
2022/04/05 07:01:50;;;;;;;17.45;3.90;;;;;;;;;;5066641;28;20033;-85
2022/04/05 07:04:16;;;;;;;28.38;6.18;;;;;;;;;;5073109;28;20033;-85
2022/04/05 07:06:43;;;;;;;28.98;6.80;;;;;;;;;;5089510;28;20499;-85
2022/04/05 07:09:09;;;;;;;31.08;7.55;;;;;;;;;;5076872;28;20024;-85
2022/04/05 07:11:37;;;;;;;34.58;8.30;;;;;;;;;;5075644;28;20032;-85
2022/04/05 07:14:03;;;;;;;29.80;7.32;;;;;;;;;;5087049;28;20494;-86
2022/04/05 07:16:30;;;;;;;29.77;7.45;;;;;;;;;;5067326;28;20149;-85
2022/04/05 07:18:57;;;;;;;28.60;6.97;;;;;;;;;;5075561;28;20059;-85
2022/04/05 07:21:24;;;;;;;34.38;6.05;;;;;;;;;;5075678;28;20039;-85
2022/04/05 07:23:50;;;;;;;23.50;6.07;;;;;;;;;;5071604;28;20119;-86
2022/04/05 07:26:21;;;;;;;22.67;4.45;;;;;;;;;;5066000;28;20054;-85
2022/04/05 07:28:48;;;;;;;31.50;4.95;;;;;;;;;;5072596;28;20554;-85
2022/04/05 07:31:14;;;;;;;23.27;4.13;;;;;;;;;;5074522;28;20032;-85
2022/04/05 07:33:41;;;;;;;24.08;5.55;;;;;;;;;;5070427;28;20055;-85
2022/04/05 07:36:07;;;;;;;32.58;6.00;;;;;;;;;;5070055;28;20040;-86
2022/04/05 07:38:33;;;;;;;24.35;5.90;;;;;;;;;;5060386;28;20135;-85
2022/04/05 07:41:00;;;;;;;26.13;5.95;;;;;;;;;;5058285;28;20028;-86
2022/04/05 07:43:27;;;;;;;24.05;5.80;;;;;;;;;;5072823;28;20062;-85
2022/04/05 07:46:00;;;;;;;19.67;5.40;;;;;;;;;;5072044;28;20043;-85
2022/04/05 07:48:28;;;;;;;26.00;4.47;;;;;;;;;;5086900;28;20043;-86
2022/04/05 07:50:55;;;;;;;32.47;6.28;;;;;;;;;;5069113;28;20165;-84
2022/04/05 07:53:22;;;;;;;27.15;6.13;;;;;;;;;;5076359;28;20055;-84
2022/04/05 07:55:48;;;;;;;22.10;5.63;;;;;;;;;;5072953;28;20396;-85
2022/04/05 07:58:15;;;;;;;23.40;5.32;;;;;;;;;;5081586;28;20031;-86
2022/04/05 08:00:41;;;;;;;22.02;5.10;;;;;;;;;;5076294;28;20028;-85
2022/04/05 08:03:11;;;;;;;28.73;5.75;;;;;;;;;;5056090;28;20027;-85
2022/04/05 08:05:40;;;;;;;31.77;6.57;;;;;;;;;;5068462;28;20036;-85
2022/04/05 08:08:06;;;;;;;27.83;5.13;;;;;;;;;;5071159;28;20024;-84
2022/04/05 08:10:35;;;;;;;28.45;5.30;;;;;;;;;;5062726;28;20528;-84
2022/04/05 08:13:01;;;;;;;22.00;5.35;;;;;;;;;;5066907;28;20468;-85
2022/04/05 08:15:35;;;;;;;24.23;5.05;;;;;;;;;;5064319;28;20033;-84
2022/04/05 08:18:01;;;;;;;27.80;6.00;;;;;;;;;;5066852;28;20032;-85
2022/04/05 08:20:32;;;;;;;29.70;6.65;;;;;;;;;;5075156;28;20032;-85
2022/04/05 08:22:58;;;;;;;23.23;7.10;;;;;;;;;;5074512;28;20027;-85
2022/04/05 08:25:27;;;;;;;28.90;8.02;;;;;;;;;;5066394;28;20079;-85
2022/04/05 08:27:53;;;;;;;20.95;6.82;;;;;;;;;;5066565;28;20132;-85
2022/04/05 08:30:35;;;;;;;30.45;7.65;;;;;;;;;;5056401;28;20471;-85
2022/04/05 08:33:02;;;;;;;29.40;6.78;;;;;;;;;;5071743;28;20082;-85
2022/04/05 08:35:28;;;;;;;26.83;6.90;;;;;;;;;;5074281;28;20040;-84
2022/04/05 08:37:55;;;;;;;23.95;6.20;;;;;;;;;;5062930;28;20028;-85
2022/04/05 08:40:22;;;;;;;20.17;5.32;;;;;;;;;;5063602;28;20055;-84
2022/04/05 08:42:52;;;;;;;20.58;4.20;;;;;;;;;;5073204;28;20058;-84
2022/04/05 08:45:19;;;;;;;29.52;5.60;;;;;;;;;;5075135;28;20040;-85
2022/04/05 08:47:50;;;;;;;20.35;3.72;;;;;;;;;;5069699;28;20127;-84
2022/04/05 08:50:17;;;;;;;23.40;3.63;;;;;;;;;;5091784;28;20394;-84
2022/04/05 08:52:44;;;;;;;14.35;3.40;;;;;;;;;;5061511;28;20043;-84
2022/04/05 08:55:13;;;;;;;21.10;4.15;;;;;;;;;;5054353;28;20044;-85
2022/04/05 08:57:39;;;;;;;15.05;3.67;;;;;;;;;;5075939;28;20166;-84
2022/04/05 09:00:19;;;;;;;21.15;3.40;;;;;;;;;;5072679;28;20035;-84
2022/04/05 09:02:59;;;;;;;13.43;4.00;;;;;;;;;;5068058;28;20418;-85
2022/04/05 09:05:27;;;;;;;19.73;3.92;;;;;;;;;;5067964;28;20039;-85
2022/04/05 09:07:53;;;;;;;23.95;4.13;;;;;;;;;;5063235;28;20043;-85
2022/04/05 09:10:20;;;;;;;19.90;4.88;;;;;;;;;;5067455;28;20032;-86
2022/04/05 09:12:47;;;;;;;23.90;4.20;;;;;;;;;;5064437;28;20140;-85
2022/04/05 09:15:16;;;;;;;14.07;3.85;;;;;;;;;;5069792;28;20544;-85
2022/04/05 09:17:46;;;;;;;15.80;3.75;;;;;;;;;;4716602;28;10000571;-84
2022/04/05 09:20:14;;;;;;;15.80;3.63;;;;;;;;;;4712153;28;9999864;-85
2022/04/05 09:22:40;;;;;;;23.00;4.15;;;;;;;;;;5075016;28;20028;-84
2022/04/05 09:25:08;;;;;;;13.50;3.47;;;;;;;;;;5059545;28;20471;-85
2022/04/05 09:27:45;;;;;;;13.68;4.18;;;;;;;;;;5045573;28;20517;-84
2022/04/05 09:30:12;;;;;;;18.73;3.50;;;;;;;;;;5074515;28;20028;-85
2022/04/05 09:32:43;;;;;;;19.92;3.65;;;;;;;;;;5061049;28;20497;-84
2022/04/05 09:35:12;;;;;;;16.63;4.43;;;;;;;;;;5070518;28;20079;-84
2022/04/05 09:37:39;;;;;;;20.27;3.83;;;;;;;;;;5065541;28;20033;-84
2022/04/05 09:40:18;;;;;;;18.83;3.40;;;;;;;;;;5069112;28;20502;-84
2022/04/05 09:43:07;;;;;;;22.30;4.32;;;;;;;;;;5068234;28;20021;-85
2022/04/05 09:45:52;;;;;;;19.50;4.05;;;;;;;;;;5064384;28;20043;-84
2022/04/05 09:48:26;;;;;;;18.73;4.65;;;;;;;;;;5072508;28;20043;-84
2022/04/05 09:51:03;;;;;;;18.55;3.67;;;;;;;;;;5068608;28;20394;-85
2022/04/05 09:53:32;;;;;;;16.48;4.72;;;;;;;;;;5060691;28;20106;-85
2022/04/05 09:56:03;;;;;;;15.07;2.65;;;;;;;;;;5068120;28;20056;-86
2022/04/05 09:58:29;;;;;;;19.48;3.17;;;;;;;;;;5064776;28;20078;-85
2022/04/05 10:01:10;;;;;;;22.77;4.60;;;;;;;;;;5061815;28;20029;-84
2022/04/05 10:03:37;;;;;;;18.23;3.90;;;;;;;;;;5069106;28;20664;-85
2022/04/05 10:06:04;;;;;;;14.77;3.13;;;;;;;;;;5066097;28;20102;-85
2022/04/05 10:08:32;;;;;;;10.93;3.38;;;;;;;;;;5065904;28;20033;-86
2022/04/05 10:11:05;;;;;;;20.58;3.70;;;;;;;;;;5060690;28;20047;-85
2022/04/05 10:13:31;;;;;;;19.83;3.35;;;;;;;;;;5072015;28;20780;-86
2022/04/05 10:16:00;;;;;;;19.65;4.10;;;;;;;;;;5061385;28;20055;-86
2022/04/05 10:18:32;;;;;;;17.30;3.08;;;;;;;;;;5070537;28;20031;-86
2022/04/05 10:20:59;;;;;;;14.90;3.15;;;;;;;;;;5075088;28;20119;-86
2022/04/05 10:23:26;;;;;;;16.73;2.90;;;;;;;;;;5074920;28;20036;-86
2022/04/05 10:25:53;;;;;;;17.55;3.15;;;;;;;;;;5070130;28;20093;-86
2022/04/05 10:28:25;;;;;;;15.05;2.72;;;;;;;;;;5072301;28;20097;-85
2022/04/05 10:31:13;;;;;;;15.63;3.50;;;;;;;;;;5069779;28;20028;-85
2022/04/05 10:33:54;;;;;;;17.67;3.72;;;;;;;;;;5069976;28;20398;-85
2022/04/05 10:36:28;;;;;;;20.08;4.15;;;;;;;;;;5069523;28;20127;-86
2022/04/05 10:39:13;;;;;;;16.00;4.20;;;;;;;;;;5066695;28;20036;-86
2022/04/05 10:41:42;;;;;;;17.58;3.83;;;;;;;;;;5090892;28;20044;-86
2022/04/05 10:44:20;;;;;;;16.92;4.47;;;;;;;;;;5081640;28;20111;-86
2022/04/05 10:47:00;;;;;;;15.93;4.10;;;;;;;;;;5083685;28;20114;-86
2022/04/05 10:49:36;;;;;;;22.02;3.75;;;;;;;;;;5073132;28;20057;-86
2022/04/05 10:52:11;;;;;;;18.17;3.88;;;;;;;;;;5074025;28;20111;-86
2022/04/05 10:54:39;;;;;;;20.85;4.32;;;;;;;;;;5068017;28;20036;-86
2022/04/05 10:57:35;;;;;;;30.60;5.40;;;;;;;;;;5071933;28;20036;-87
2022/04/05 11:00:12;;;;;;;15.45;4.63;;;;;;;;;;5067578;28;20032;-86
2022/04/05 11:02:39;;;;;;;20.52;4.72;;;;;;;;;;5073063;28;20036;-87
2022/04/05 11:05:28;;;;;;;21.13;5.15;;;;;;;;;;5076442;28;20527;-86
2022/04/05 11:07:55;;;;;;;18.23;5.50;;;;;;;;;;5067052;28;20039;-86
2022/04/05 11:10:44;;;;;;;22.85;5.85;;;;;;;;;;5066773;28;20488;-87
2022/04/05 11:13:14;;;;;;;26.95;5.25;;;;;;;;;;5071809;28;20036;-86
2022/04/05 11:15:47;;;;;;;24.55;4.63;;;;;;;;;;5057539;28;20128;-88
2022/04/05 11:18:20;;;;;;;24.35;4.85;;;;;;;;;;5057697;28;20494;-86
2022/04/05 11:20:47;;;;;;;32.53;5.63;;;;;;;;;;5072338;28;20036;-87
2022/04/05 11:23:15;;;;;;;21.48;4.80;;;;;;;;;;5065112;28;20120;-87
2022/04/05 11:25:43;;;;;;;27.25;4.82;;;;;;;;;;5061267;28;20040;-88
2022/04/05 11:28:13;;;;;;;17.52;4.85;;;;;;;;;;5070865;28;20113;-87
2022/04/05 11:30:45;;;;;;;20.92;4.63;;;;;;;;;;5070510;28;20842;-87
2022/04/05 11:33:17;;;;;;;22.10;5.05;;;;;;;;;;5067197;28;20093;-87
2022/04/05 11:35:46;;;;;;;18.15;5.05;;;;;;;;;;5072234;28;20158;-86
2022/04/05 11:38:27;;;;;;;25.30;5.30;;;;;;;;;;5084346;28;20033;-87
2022/04/05 11:41:05;;;;;;;19.80;4.50;;;;;;;;;;5072610;28;20024;-87
2022/04/05 11:43:35;;;;;;;17.25;4.75;;;;;;;;;;5063073;28;20040;-87
2022/04/05 11:46:04;;;;;;;22.45;4.30;;;;;;;;;;5088723;28;20089;-87
2022/04/05 11:48:31;;;;;;;25.33;5.95;;;;;;;;;;5070267;28;20395;-86
2022/04/05 11:51:01;;;;;;;23.15;5.20;;;;;;;;;;5071364;28;20024;-86
2022/04/05 11:53:31;;;;;;;25.73;5.22;;;;;;;;;;5066851;28;20032;-86
2022/04/05 11:56:03;;;;;;;23.13;4.75;;;;;;;;;;5072098;28;20032;-86
2022/04/05 11:58:34;;;;;;;28.55;5.55;;;;;;;;;;5089700;28;20495;-87
2022/04/05 12:01:04;;;;;;;22.17;5.53;;;;;;;;;;5069970;28;20035;-86
2022/04/05 12:03:45;;;;;;;27.65;5.97;;;;;;;;;;5060248;28;20046;-86
2022/04/05 12:06:13;;;;;;;23.83;5.75;;;;;;;;;;5061862;28;20844;-88
2022/04/05 12:08:40;;;;;;;25.42;5.72;;;;;;;;;;5072748;28;20040;-85
2022/04/05 12:11:07;;;;;;;15.30;4.95;;;;;;;;;;5062533;28;20063;-87
2022/04/05 12:13:34;;;;;;;19.38;4.78;;;;;;;;;;5062428;28;20130;-88
2022/04/05 12:16:06;;;;;;;21.05;4.57;;;;;;;;;;5065923;28;20039;-85
2022/04/05 12:18:33;;;;;;;17.58;5.72;;;;;;;;;;5065877;28;21091;-85
2022/04/05 12:21:05;;;;;;;21.67;5.32;;;;;;;;;;5086438;28;20036;-85
2022/04/05 12:23:35;;;;;;;18.00;5.00;;;;;;;;;;5088906;28;20032;-84
2022/04/05 12:26:02;;;;;;;23.48;5.50;;;;;;;;;;5088706;28;20620;-85
2022/04/05 12:28:28;;;;;;;16.92;3.95;;;;;;;;;;5059160;28;20041;-84
2022/04/05 12:31:04;;;;;;;22.45;5.25;;;;;;;;;;5063850;28;20037;-85
2022/04/05 12:33:31;;;;;;;31.15;5.68;;;;;;;;;;5057497;28;20471;-84
2022/04/05 12:36:01;;;;;;;22.73;5.07;;;;;;;;;;5062423;28;20043;-84
2022/04/05 12:38:27;;;;;;;21.45;5.15;;;;;;;;;;5072947;28;20058;-84
2022/04/05 12:40:57;;;;;;;18.90;4.47;;;;;;;;;;5066224;28;20120;-85
2022/04/05 12:43:23;;;;;;;21.23;4.50;;;;;;;;;;5071038;28;20064;-85
2022/04/05 12:45:51;;;;;;;20.90;4.65;;;;;;;;;;5069241;28;20036;-84
2022/04/05 12:48:18;;;;;;;14.23;4.57;;;;;;;;;;5065986;28;20032;-86
2022/04/05 12:50:52;;;;;;;23.50;4.82;;;;;;;;;;5070724;28;20039;-85
2022/04/05 12:53:30;;;;;;;22.27;5.22;;;;;;;;;;5065256;28;20545;-85
2022/04/05 12:56:08;;;;;;;20.17;4.75;;;;;;;;;;5064311;28;20059;-84
2022/04/05 12:58:39;;;;;;;21.55;4.47;;;;;;;;;;5090422;28;20368;-85
2022/04/05 13:01:27;;;;;;;20.45;4.80;;;;;;;;;;5069267;28;20032;-83
2022/04/05 13:04:03;;;;;;;24.95;5.05;;;;;;;;;;5064152;28;20062;-84
2022/04/05 13:06:39;;;;;;;22.95;6.30;;;;;;;;;;5048684;28;20045;-85
2022/04/05 13:09:09;;;;;;;21.92;5.43;;;;;;;;;;5054555;28;20089;-85
2022/04/05 13:11:37;;;;;;;24.92;5.18;;;;;;;;;;5050872;28;20044;-84
2022/04/05 13:14:07;;;;;;;25.58;6.50;;;;;;;;;;5032888;28;20033;-85
2022/04/05 13:16:36;;;;;;;22.80;8.13;;;;;;;;;;5034250;28;20496;-85
2022/04/05 13:19:13;;;;;;;37.08;9.00;;;;;;;;;;5034276;28;20024;-85
2022/04/05 13:21:54;;;;;;;36.47;9.95;;;;;;;;;;5032812;28;20124;-86
2022/04/05 13:24:22;;;;;;;42.10;9.05;;;;;;;;;;5043081;28;20033;-87
2022/04/05 13:26:53;;;;;;;30.38;8.02;;;;;;;;;;5031661;28;20195;-87
2022/04/05 13:29:26;;;;;;;26.88;7.68;;;;;;;;;;5040581;28;20060;-85
2022/04/05 13:31:55;;;;;;;26.88;7.68;;;;;;;;;;5031300;28;20040;-85
2022/04/05 13:34:27;;;;;;;29.45;7.47;;;;;;;;;;5031080;28;21961;-85
2022/04/05 13:36:54;;;;;;;39.40;8.95;;;;;;;;;;5053289;28;20039;-85
2022/04/05 13:39:22;;;;;;;28.95;7.80;;;;;;;;;;5056608;28;20041;-85
2022/04/05 13:41:48;;;;;;;36.72;8.43;;;;;;;;;;5064180;28;20072;-85
2022/04/05 13:44:15;;;;;;;34.88;8.20;;;;;;;;;;5066868;28;20638;-85
2022/04/05 13:46:41;;;;;;;30.92;7.72;;;;;;;;;;5069280;28;20032;-85
2022/04/05 13:49:14;;;;;;;40.17;8.95;;;;;;;;;;5070006;28;20028;-85
2022/04/05 13:51:41;;;;;;;34.55;7.57;;;;;;;;;;5065242;28;20039;-85
2022/04/05 13:54:16;;;;;;;29.60;6.82;;;;;;;;;;5066285;28;20054;-86
2022/04/05 13:56:44;;;;;;;23.15;6.32;;;;;;;;;;5085450;28;20036;-84
2022/04/05 13:59:12;;;;;;;23.40;6.93;;;;;;;;;;5069169;28;20111;-85
2022/04/05 14:01:39;;;;;;;28.98;7.40;;;;;;;;;;5070250;28;20032;-85
2022/04/05 14:04:06;;;;;;;36.90;7.57;;;;;;;;;;5076694;28;20463;-85
2022/04/05 14:06:33;;;;;;;37.58;8.48;;;;;;;;;;5073173;28;20040;-84
2022/04/05 14:09:00;;;;;;;40.63;9.82;;;;;;;;;;5074380;28;20039;-85
2022/04/05 14:11:27;;;;;;;39.22;10.60;;;;;;;;;;5072939;28;20441;-85
2022/04/05 14:13:54;;;;;;;45.40;11.43;;;;;;;;;;5076467;28;20060;-85
2022/04/05 14:16:20;;;;;;;38.72;11.90;;;;;;;;;;5070392;28;20039;-85
2022/04/05 14:18:50;;;;;;;38.95;11.98;;;;;;;;;;5072177;28;20033;-84
2022/04/05 14:21:16;;;;;;;41.95;11.48;;;;;;;;;;5071646;28;20150;-85
2022/04/05 14:23:43;;;;;;;38.30;11.70;;;;;;;;;;5070834;28;20458;-85
2022/04/05 14:26:11;;;;;;;33.33;10.65;;;;;;;;;;5069838;28;20076;-85
2022/04/05 14:28:39;;;;;;;34.28;10.57;;;;;;;;;;5090773;28;20040;-85
2022/04/05 14:31:09;;;;;;;34.13;9.70;;;;;;;;;;5073768;28;20028;-85
2022/04/05 14:33:35;;;;;;;35.10;10.48;;;;;;;;;;5074487;28;20506;-85
2022/04/05 14:36:02;;;;;;;35.95;9.70;;;;;;;;;;5074066;28;20028;-86
2022/04/05 14:38:28;;;;;;;27.48;9.00;;;;;;;;;;5076433;28;20078;-85
2022/04/05 14:40:55;;;;;;;32.83;9.93;;;;;;;;;;5072358;28;20054;-85
2022/04/05 14:43:21;;;;;;;35.08;9.68;;;;;;;;;;5061249;28;20531;-85
2022/04/05 14:45:52;;;;;;;31.13;10.77;;;;;;;;;;5070274;28;20037;-86
2022/04/05 14:48:18;;;;;;;37.67;11.70;;;;;;;;;;5064072;28;20048;-86
2022/04/05 14:50:50;;;;;;;40.85;11.18;;;;;;;;;;5068103;28;20091;-86